createdAt,value
2023-12-14T00:05:54.156Z,5.77
2023-12-14T00:11:13.058Z,5.71
2023-12-14T00:21:51.140Z,5.57
2023-12-14T00:27:10.336Z,5.61
2023-12-14T00:32:29.226Z,5.58
2023-12-14T00:43:08.781Z,5.51
2023-12-14T00:48:28.698Z,5.55
2023-12-14T00:59:06.127Z,5.55
2023-12-14T01:04:24.886Z,5.64
2023-12-14T01:15:03.379Z,5.72
2023-12-14T01:20:22.381Z,5.79
2023-12-14T01:25:41.954Z,5.79
2023-12-14T01:31:00.946Z,5.79
2023-12-14T01:41:40.121Z,5.92
2023-12-14T01:46:59.646Z,5.94
2023-12-14T01:57:38.439Z,5.78
2023-12-14T02:02:58.100Z,5.84
2023-12-14T02:08:17.201Z,5.81
2023-12-14T02:13:36.786Z,5.75
2023-12-14T02:24:15.839Z,5.61
2023-12-14T02:29:34.842Z,5.61
2023-12-14T02:40:13.726Z,5.62
2023-12-14T02:45:33.582Z,5.72
2023-12-14T02:50:52.935Z,5.75
2023-12-14T02:56:12.834Z,5.47
2023-12-14T03:01:31.221Z,5.37
2023-12-14T03:06:50.460Z,5.17
2023-12-14T03:12:09.657Z,4.89
2023-12-14T03:22:47.379Z,4.67
2023-12-14T03:28:06.844Z,4.73
2023-12-14T03:33:25.782Z,4.85
2023-12-14T03:38:44.942Z,4.88
2023-12-14T03:44:04.348Z,4.92
2023-12-14T03:49:22.985Z,5.06
2023-12-14T03:54:41.927Z,5.09
2023-12-14T04:05:21.060Z,4.59
2023-12-14T04:10:40.008Z,4.44
2023-12-14T04:21:18.425Z,4.88
2023-12-14T04:26:37.813Z,4.76
2023-12-14T04:31:56.859Z,4.44
2023-12-14T04:37:15.763Z,4.38
2023-12-14T04:47:54.482Z,4.17
2023-12-14T04:53:13.650Z,3.82
2023-12-14T05:03:51.928Z,3.65
2023-12-14T05:09:11.181Z,3.72
2023-12-14T05:14:30.313Z,3.73
2023-12-14T05:19:49.714Z,3.75
2023-12-14T05:30:37.336Z,3.85
2023-12-14T05:35:48.137Z,4.21
2023-12-14T05:46:26.409Z,4.64
2023-12-14T05:51:45.499Z,4.62
2023-12-14T05:57:04.566Z,4.46
2023-12-14T06:02:24.660Z,4.17
2023-12-14T06:07:42.899Z,4.25
2023-12-14T06:13:01.513Z,4.36
2023-12-14T06:18:20.807Z,4.48
2023-12-14T06:28:59.349Z,4.58
2023-12-14T06:34:18.710Z,4.3
2023-12-14T06:39:38.213Z,4.01
2023-12-14T06:44:57.655Z,3.85
2023-12-14T06:50:16.397Z,3.8
2023-12-14T06:55:35.750Z,3.79
2023-12-14T07:00:55.220Z,3.73
2023-12-14T07:11:34.057Z,3.7
2023-12-14T07:16:52.239Z,3.76
2023-12-14T07:22:11.345Z,3.82
2023-12-14T07:27:31.297Z,3.86
2023-12-14T07:32:49.658Z,3.89
2023-12-14T07:38:09.391Z,3.97
2023-12-14T07:48:48.577Z,4.19
2023-12-14T07:54:07.009Z,4.42
2023-12-14T08:04:45.145Z,4.71
2023-12-14T08:10:04.813Z,4.8
2023-12-14T08:15:24.485Z,5.19
2023-12-14T08:20:43.958Z,5.12
2023-12-14T08:31:22.676Z,4.83
2023-12-14T08:36:41.603Z,4.71
2023-12-14T08:47:19.428Z,4.88
2023-12-14T08:52:38.752Z,5.06
2023-12-14T08:57:57.589Z,5.29
2023-12-14T09:03:17.017Z,5.44
2023-12-14T09:13:56.043Z,5.81
2023-12-14T09:19:15.106Z,5.97
2023-12-14T09:29:53.423Z,6.23
2023-12-14T09:35:12.967Z,6.41
2023-12-14T09:40:32.566Z,6.63
2023-12-14T09:45:52.427Z,6.74
2023-12-14T09:51:11.724Z,6.77
2023-12-14T09:56:30.763Z,6.81
2023-12-14T10:01:49.733Z,6.83
2023-12-14T10:12:27.838Z,6.84
2023-12-14T10:17:47.257Z,6.87
2023-12-14T10:23:06.417Z,6.9
2023-12-14T10:28:25.965Z,6.94
2023-12-14T10:33:45.272Z,6.97
2023-12-14T10:39:04.587Z,6.95
2023-12-14T10:44:30.189Z,6.98
2023-12-14T10:55:02.368Z,6.88
2023-12-14T11:00:21.672Z,6.85
2023-12-14T11:11:00.455Z,6.83
2023-12-14T11:16:19.255Z,6.87
2023-12-14T11:21:38.995Z,6.91
2023-12-14T11:26:58.646Z,6.92
2023-12-14T11:37:37.066Z,6.97
2023-12-14T11:42:55.898Z,7.01
2023-12-14T11:53:34.797Z,7.08
2023-12-14T11:58:54.312Z,7.08
2023-12-14T12:04:13.083Z,7.02
2023-12-14T12:09:32.041Z,6.94
2023-12-14T12:20:10.732Z,6.78
2023-12-14T12:25:29.587Z,6.74
2023-12-14T12:36:07.779Z,6.58
2023-12-14T12:41:27.216Z,6.54
2023-12-14T12:46:49.642Z,6.51
2023-12-14T12:52:05.650Z,6.51
2023-12-14T12:57:24.742Z,6.56
2023-12-14T13:02:44.239Z,6.53
2023-12-14T13:08:03.450Z,6.37
2023-12-14T13:18:41.959Z,6.23
2023-12-14T13:24:00.427Z,6.25
2023-12-14T13:34:39.057Z,6.15
2023-12-14T13:39:58.307Z,6.09
2023-12-14T13:45:17.966Z,6.08
2023-12-14T13:50:37.871Z,6.08
2023-12-14T14:01:15.647Z,5.99
2023-12-14T14:11:55.173Z,6.01
2023-12-14T14:17:13.952Z,5.99
2023-12-14T14:27:52.038Z,5.87
2023-12-14T14:33:11.842Z,5.82
2023-12-14T14:38:31.526Z,5.81
2023-12-14T14:43:51.942Z,5.78
2023-12-14T14:54:30.142Z,5.75
2023-12-14T14:59:49.380Z,5.74
2023-12-14T15:05:08.682Z,5.68
2023-12-14T15:10:53.123Z,5.67
2023-12-14T15:16:12.961Z,5.67
2023-12-14T15:26:50.779Z,5.62
2023-12-14T15:32:09.682Z,5.6
2023-12-14T15:37:28.996Z,5.58
2023-12-14T15:42:48.117Z,5.58
2023-12-14T15:53:28.293Z,5.55
2023-12-14T15:58:46.085Z,5.47
2023-12-14T16:09:24.816Z,5.4
2023-12-14T16:14:43.856Z,5.43
2023-12-14T16:20:03.184Z,5.46
2023-12-14T16:25:22.216Z,5.47
2023-12-14T16:30:40.955Z,5.5
2023-12-14T16:36:00.726Z,5.47
2023-12-14T16:41:19.880Z,5.44
2023-12-14T16:51:59.265Z,5.44
2023-12-14T16:57:19.009Z,5.44
2023-12-14T17:02:38.421Z,5.46
2023-12-14T17:07:57.879Z,5.38
2023-12-14T17:13:17.364Z,5.36
2023-12-14T17:18:36.891Z,5.33
2023-12-14T17:23:56.125Z,5.3
2023-12-14T17:34:34.390Z,5.23
2023-12-14T17:39:53.624Z,5.2
2023-12-14T17:50:32.081Z,5.19
2023-12-14T17:55:50.943Z,5.22
2023-12-14T18:01:10.131Z,5.31
2023-12-14T18:06:29.802Z,5.33
2023-12-14T18:17:08.315Z,5.38
2023-12-14T18:22:27.319Z,5.41
2023-12-14T18:33:05.538Z,5.12
2023-12-14T18:38:24.590Z,4.92
2023-12-14T18:43:43.377Z,4.83
2023-12-14T18:49:03.135Z,4.73
2023-12-14T18:59:41.722Z,4.71
2023-12-14T19:05:00.920Z,4.76
2023-12-14T19:15:39.460Z,4.75
2023-12-14T19:20:59.090Z,4.69
2023-12-14T19:26:18.849Z,4.67
2023-12-14T19:31:38.282Z,4.61
2023-12-14T19:42:16.545Z,4.57
2023-12-14T19:47:36.269Z,4.54
2023-12-14T19:58:14.442Z,4.57
2023-12-14T20:03:34.078Z,4.61
2023-12-14T20:08:53.150Z,4.58
2023-12-14T20:14:12.281Z,4.57
2023-12-14T20:19:31.485Z,4.48
2023-12-14T20:24:51.142Z,4.51
2023-12-14T20:30:10.502Z,4.46
2023-12-14T20:40:48.453Z,4.36
2023-12-14T20:46:07.289Z,4.36
2023-12-14T20:51:26.515Z,4.41
2023-12-14T20:56:45.800Z,4.52
2023-12-14T21:02:04.948Z,4.54
2023-12-14T21:07:24.526Z,4.57
2023-12-14T21:18:03.084Z,4.52
2023-12-14T21:23:21.489Z,4.48
2023-12-14T21:34:00.595Z,4.52
2023-12-14T21:39:19.504Z,4.55
2023-12-14T21:44:39.152Z,4.57
2023-12-14T21:49:58.608Z,4.51
2023-12-14T22:00:36.633Z,4.41
2023-12-14T22:05:56.112Z,4.34
2023-12-14T22:16:34.155Z,4.17
2023-12-14T22:21:53.893Z,4.11
2023-12-14T22:27:12.972Z,4.04
2023-12-14T22:32:32.331Z,4.03
2023-12-14T22:43:10.648Z,3.87
2023-12-14T22:48:30.320Z,3.82
2023-12-14T22:59:08.944Z,3.68
2023-12-14T23:04:27.960Z,3.59
2023-12-14T23:09:47.563Z,3.51
2023-12-14T23:15:06.578Z,3.36
2023-12-14T23:20:26.136Z,3.27
2023-12-14T23:25:44.945Z,3.12
2023-12-14T23:31:04.131Z,3.04
2023-12-14T23:41:42.823Z,2.91
2023-12-14T23:47:01.802Z,2.96
2023-12-14T23:57:40.099Z,2.96
